sensor_id;sensor_type;location;lat;lon;timestamp;temperature;humidity
12948;DHT22;6539;49.476;8.484;2022-12-07T00:01:37;7.60;99.90
12948;DHT22;6539;49.476;8.484;2022-12-07T00:04:09;7.60;99.90
12948;DHT22;6539;49.476;8.484;2022-12-07T00:06:39;7.60;99.90
12948;DHT22;6539;49.476;8.484;2022-12-07T00:09:10;7.40;99.90
12948;DHT22;6539;49.476;8.484;2022-12-07T00:11:40;7.30;99.90
12948;DHT22;6539;49.476;8.484;2022-12-07T00:14:10;7.40;99.90
12948;DHT22;6539;49.476;8.484;2022-12-07T00:16:40;7.50;99.90
12948;DHT22;6539;49.476;8.484;2022-12-07T00:19:11;7.50;99.90
12948;DHT22;6539;49.476;8.484;2022-12-07T00:21:43;7.10;99.90
12948;DHT22;6539;49.476;8.484;2022-12-07T00:24:11;7.30;99.90
12948;DHT22;6539;49.476;8.484;2022-12-07T00:26:41;7.10;99.90
12948;DHT22;6539;49.476;8.484;2022-12-07T00:29:18;7.30;99.90
12948;DHT22;6539;49.476;8.484;2022-12-07T00:31:47;7.20;99.90
12948;DHT22;6539;49.476;8.484;2022-12-07T00:34:18;7.40;99.90
12948;DHT22;6539;49.476;8.484;2022-12-07T00:36:47;7.50;99.90
12948;DHT22;6539;49.476;8.484;2022-12-07T00:39:18;7.40;99.90
12948;DHT22;6539;49.476;8.484;2022-12-07T00:41:46;7.50;99.90
12948;DHT22;6539;49.476;8.484;2022-12-07T00:44:15;7.20;99.90
12948;DHT22;6539;49.476;8.484;2022-12-07T00:46:41;7.60;99.90
12948;DHT22;6539;49.476;8.484;2022-12-07T00:49:07;7.20;99.90
12948;DHT22;6539;49.476;8.484;2022-12-07T00:51:32;7.50;99.90
12948;DHT22;6539;49.476;8.484;2022-12-07T00:54:01;7.40;99.90
12948;DHT22;6539;49.476;8.484;2022-12-07T00:56:29;7.50;99.90
12948;DHT22;6539;49.476;8.484;2022-12-07T00:59:01;7.30;99.90
12948;DHT22;6539;49.476;8.484;2022-12-07T01:01:30;7.40;99.90
12948;DHT22;6539;49.476;8.484;2022-12-07T01:03:58;7.20;99.90
12948;DHT22;6539;49.476;8.484;2022-12-07T01:06:26;7.20;99.90
12948;DHT22;6539;49.476;8.484;2022-12-07T01:08:55;7.10;99.90
12948;DHT22;6539;49.476;8.484;2022-12-07T01:11:24;7.40;99.90
12948;DHT22;6539;49.476;8.484;2022-12-07T01:13:53;7.20;99.90
12948;DHT22;6539;49.476;8.484;2022-12-07T01:16:27;7.10;99.90
12948;DHT22;6539;49.476;8.484;2022-12-07T01:18:56;7.20;99.90
12948;DHT22;6539;49.476;8.484;2022-12-07T01:21:25;7.00;99.90
12948;DHT22;6539;49.476;8.484;2022-12-07T01:23:56;6.90;99.90
12948;DHT22;6539;49.476;8.484;2022-12-07T01:26:24;7.00;99.90
12948;DHT22;6539;49.476;8.484;2022-12-07T01:28:52;7.10;99.90
12948;DHT22;6539;49.476;8.484;2022-12-07T01:31:23;7.10;99.90
12948;DHT22;6539;49.476;8.484;2022-12-07T01:33:53;6.70;99.90
12948;DHT22;6539;49.476;8.484;2022-12-07T01:36:24;6.70;99.90
12948;DHT22;6539;49.476;8.484;2022-12-07T01:38:57;6.90;99.90
12948;DHT22;6539;49.476;8.484;2022-12-07T01:41:35;7.00;99.90
12948;DHT22;6539;49.476;8.484;2022-12-07T01:46:37;7.00;99.90
12948;DHT22;6539;49.476;8.484;2022-12-07T01:49:49;7.00;99.90
12948;DHT22;6539;49.476;8.484;2022-12-07T01:52:15;7.00;99.90
12948;DHT22;6539;49.476;8.484;2022-12-07T01:54:52;7.00;99.90
12948;DHT22;6539;49.476;8.484;2022-12-07T01:59:57;7.10;99.90
12948;DHT22;6539;49.476;8.484;2022-12-07T02:02:34;6.70;99.90
12948;DHT22;6539;49.476;8.484;2022-12-07T02:05:06;6.80;99.90
12948;DHT22;6539;49.476;8.484;2022-12-07T02:07:34;6.60;99.90
12948;DHT22;6539;49.476;8.484;2022-12-07T02:12:59;6.50;99.90
12948;DHT22;6539;49.476;8.484;2022-12-07T02:16:08;6.90;99.90
12948;DHT22;6539;49.476;8.484;2022-12-07T02:18:58;7.00;99.90
12948;DHT22;6539;49.476;8.484;2022-12-07T02:21:45;6.90;99.90
12948;DHT22;6539;49.476;8.484;2022-12-07T02:30:14;6.70;99.90
12948;DHT22;6539;49.476;8.484;2022-12-07T02:35:30;6.60;99.90
12948;DHT22;6539;49.476;8.484;2022-12-07T02:38:11;6.40;99.90
12948;DHT22;6539;49.476;8.484;2022-12-07T02:40:54;6.50;99.90
12948;DHT22;6539;49.476;8.484;2022-12-07T02:43:32;6.80;99.90
12948;DHT22;6539;49.476;8.484;2022-12-07T02:46:13;6.90;99.90
12948;DHT22;6539;49.476;8.484;2022-12-07T02:48:43;6.80;99.90
12948;DHT22;6539;49.476;8.484;2022-12-07T02:51:09;6.80;99.90
12948;DHT22;6539;49.476;8.484;2022-12-07T02:53:36;6.40;99.90
12948;DHT22;6539;49.476;8.484;2022-12-07T03:10:24;6.60;99.90
12948;DHT22;6539;49.476;8.484;2022-12-07T03:16:18;6.60;99.90
12948;DHT22;6539;49.476;8.484;2022-12-07T03:19:00;6.70;99.90
12948;DHT22;6539;49.476;8.484;2022-12-07T03:21:39;6.20;99.90
12948;DHT22;6539;49.476;8.484;2022-12-07T03:24:12;6.40;99.90
12948;DHT22;6539;49.476;8.484;2022-12-07T03:26:51;6.40;99.90
12948;DHT22;6539;49.476;8.484;2022-12-07T03:29:30;6.60;99.90
12948;DHT22;6539;49.476;8.484;2022-12-07T03:32:04;6.50;99.90
12948;DHT22;6539;49.476;8.484;2022-12-07T03:34:43;6.10;99.90
12948;DHT22;6539;49.476;8.484;2022-12-07T03:37:29;6.50;99.90
12948;DHT22;6539;49.476;8.484;2022-12-07T03:40:21;6.20;99.90
12948;DHT22;6539;49.476;8.484;2022-12-07T03:42:52;6.60;99.90
12948;DHT22;6539;49.476;8.484;2022-12-07T03:45:36;6.50;99.90
12948;DHT22;6539;49.476;8.484;2022-12-07T03:51:18;6.90;99.90
12948;DHT22;6539;49.476;8.484;2022-12-07T03:56:36;6.50;99.90
12948;DHT22;6539;49.476;8.484;2022-12-07T03:59:02;6.70;99.90
12948;DHT22;6539;49.476;8.484;2022-12-07T04:01:32;6.50;99.90
12948;DHT22;6539;49.476;8.484;2022-12-07T04:03:57;6.70;99.90
12948;DHT22;6539;49.476;8.484;2022-12-07T04:06:23;6.40;99.90
12948;DHT22;6539;49.476;8.484;2022-12-07T04:08:49;6.50;99.90
12948;DHT22;6539;49.476;8.484;2022-12-07T04:11:15;6.30;99.90
12948;DHT22;6539;49.476;8.484;2022-12-07T04:13:40;6.40;99.90
12948;DHT22;6539;49.476;8.484;2022-12-07T04:16:25;6.40;99.90
12948;DHT22;6539;49.476;8.484;2022-12-07T04:18:53;6.70;99.90
12948;DHT22;6539;49.476;8.484;2022-12-07T04:21:23;6.40;99.90
12948;DHT22;6539;49.476;8.484;2022-12-07T04:23:48;6.60;99.90
12948;DHT22;6539;49.476;8.484;2022-12-07T04:26:14;6.30;99.90
12948;DHT22;6539;49.476;8.484;2022-12-07T04:28:41;6.60;99.90
12948;DHT22;6539;49.476;8.484;2022-12-07T04:31:07;6.30;99.90
12948;DHT22;6539;49.476;8.484;2022-12-07T04:33:32;6.70;99.90
12948;DHT22;6539;49.476;8.484;2022-12-07T04:36:03;6.60;99.90
12948;DHT22;6539;49.476;8.484;2022-12-07T04:38:31;6.60;99.90
12948;DHT22;6539;49.476;8.484;2022-12-07T04:40:57;7.00;99.90
12948;DHT22;6539;49.476;8.484;2022-12-07T04:43:31;6.40;99.90
12948;DHT22;6539;49.476;8.484;2022-12-07T04:45:57;6.70;99.90
12948;DHT22;6539;49.476;8.484;2022-12-07T04:48:23;6.50;99.90
12948;DHT22;6539;49.476;8.484;2022-12-07T04:50:51;6.50;99.90
12948;DHT22;6539;49.476;8.484;2022-12-07T04:53:19;6.50;99.90
12948;DHT22;6539;49.476;8.484;2022-12-07T04:55:46;6.40;99.90
12948;DHT22;6539;49.476;8.484;2022-12-07T04:58:13;6.50;99.90
12948;DHT22;6539;49.476;8.484;2022-12-07T05:03:14;6.30;99.90
12948;DHT22;6539;49.476;8.484;2022-12-07T05:05:41;6.20;99.90
12948;DHT22;6539;49.476;8.484;2022-12-07T05:10:33;6.10;99.90
12948;DHT22;6539;49.476;8.484;2022-12-07T05:12:59;6.40;99.90
12948;DHT22;6539;49.476;8.484;2022-12-07T05:20:24;6.50;99.90
12948;DHT22;6539;49.476;8.484;2022-12-07T05:22:52;6.10;99.90
12948;DHT22;6539;49.476;8.484;2022-12-07T05:25:17;6.10;99.90
12948;DHT22;6539;49.476;8.484;2022-12-07T05:27:46;6.00;99.90
12948;DHT22;6539;49.476;8.484;2022-12-07T05:30:14;6.30;99.90
12948;DHT22;6539;49.476;8.484;2022-12-07T05:32:40;6.30;99.90
12948;DHT22;6539;49.476;8.484;2022-12-07T05:35:08;6.20;99.90
12948;DHT22;6539;49.476;8.484;2022-12-07T05:37:36;6.10;99.90
12948;DHT22;6539;49.476;8.484;2022-12-07T05:40:05;6.20;99.90
12948;DHT22;6539;49.476;8.484;2022-12-07T05:45:03;6.10;99.90
12948;DHT22;6539;49.476;8.484;2022-12-07T05:47:29;6.00;99.90
12948;DHT22;6539;49.476;8.484;2022-12-07T05:52:28;6.50;99.90
12948;DHT22;6539;49.476;8.484;2022-12-07T05:54:53;6.50;99.90
12948;DHT22;6539;49.476;8.484;2022-12-07T05:59:48;6.40;99.90
12948;DHT22;6539;49.476;8.484;2022-12-07T06:02:15;6.30;99.90
12948;DHT22;6539;49.476;8.484;2022-12-07T06:04:44;6.50;99.90
12948;DHT22;6539;49.476;8.484;2022-12-07T06:07:13;6.30;99.90
12948;DHT22;6539;49.476;8.484;2022-12-07T06:09:42;6.40;99.90
12948;DHT22;6539;49.476;8.484;2022-12-07T06:12:10;6.30;99.90
12948;DHT22;6539;49.476;8.484;2022-12-07T06:14:58;6.50;99.90
12948;DHT22;6539;49.476;8.484;2022-12-07T06:17:24;6.40;99.90
12948;DHT22;6539;49.476;8.484;2022-12-07T06:19:50;6.60;99.90
12948;DHT22;6539;49.476;8.484;2022-12-07T06:22:17;6.20;99.90
12948;DHT22;6539;49.476;8.484;2022-12-07T06:24:43;6.60;99.90
12948;DHT22;6539;49.476;8.484;2022-12-07T06:27:12;6.10;99.90
12948;DHT22;6539;49.476;8.484;2022-12-07T06:29:40;6.20;99.90
12948;DHT22;6539;49.476;8.484;2022-12-07T06:32:08;6.30;99.90
12948;DHT22;6539;49.476;8.484;2022-12-07T06:34:37;6.40;99.90
12948;DHT22;6539;49.476;8.484;2022-12-07T06:37:03;6.50;99.90
12948;DHT22;6539;49.476;8.484;2022-12-07T06:39:30;6.30;99.90
12948;DHT22;6539;49.476;8.484;2022-12-07T06:41:56;6.30;99.90
12948;DHT22;6539;49.476;8.484;2022-12-07T06:44:26;6.40;99.90
12948;DHT22;6539;49.476;8.484;2022-12-07T06:46:57;6.20;99.90
12948;DHT22;6539;49.476;8.484;2022-12-07T06:49:22;6.20;99.90
12948;DHT22;6539;49.476;8.484;2022-12-07T06:51:51;6.20;99.90
12948;DHT22;6539;49.476;8.484;2022-12-07T06:54:17;6.30;99.90
12948;DHT22;6539;49.476;8.484;2022-12-07T06:56:50;6.10;99.90
12948;DHT22;6539;49.476;8.484;2022-12-07T06:59:18;6.20;99.90
12948;DHT22;6539;49.476;8.484;2022-12-07T07:01:44;6.20;99.90
12948;DHT22;6539;49.476;8.484;2022-12-07T07:04:12;6.10;99.90
12948;DHT22;6539;49.476;8.484;2022-12-07T07:06:37;6.10;99.90
12948;DHT22;6539;49.476;8.484;2022-12-07T07:09:03;7.40;99.90
12948;DHT22;6539;49.476;8.484;2022-12-07T07:11:29;6.30;99.90
12948;DHT22;6539;49.476;8.484;2022-12-07T07:13:57;6.00;99.90
12948;DHT22;6539;49.476;8.484;2022-12-07T07:16:29;6.50;99.90
12948;DHT22;6539;49.476;8.484;2022-12-07T07:18:56;6.50;99.90
12948;DHT22;6539;49.476;8.484;2022-12-07T07:21:21;6.40;99.90
12948;DHT22;6539;49.476;8.484;2022-12-07T07:23:48;6.30;99.90
12948;DHT22;6539;49.476;8.484;2022-12-07T07:26:14;6.60;99.90
12948;DHT22;6539;49.476;8.484;2022-12-07T07:28:40;6.20;99.90
12948;DHT22;6539;49.476;8.484;2022-12-07T07:31:06;6.40;99.90
12948;DHT22;6539;49.476;8.484;2022-12-07T07:36:02;6.20;99.90
12948;DHT22;6539;49.476;8.484;2022-12-07T07:38:28;6.60;99.90
12948;DHT22;6539;49.476;8.484;2022-12-07T07:40:58;7.40;99.90
12948;DHT22;6539;49.476;8.484;2022-12-07T07:43:26;6.40;99.90
12948;DHT22;6539;49.476;8.484;2022-12-07T07:45:54;6.60;99.90
12948;DHT22;6539;49.476;8.484;2022-12-07T07:48:23;6.30;99.90
12948;DHT22;6539;49.476;8.484;2022-12-07T07:50:50;6.20;99.90
12948;DHT22;6539;49.476;8.484;2022-12-07T07:53:16;6.30;99.90
12948;DHT22;6539;49.476;8.484;2022-12-07T07:55:55;6.70;99.90
12948;DHT22;6539;49.476;8.484;2022-12-07T07:58:27;7.00;99.90
12948;DHT22;6539;49.476;8.484;2022-12-07T08:00:55;6.80;99.90
12948;DHT22;6539;49.476;8.484;2022-12-07T08:03:21;6.60;99.90
12948;DHT22;6539;49.476;8.484;2022-12-07T08:05:54;6.60;99.90
12948;DHT22;6539;49.476;8.484;2022-12-07T08:08:20;6.50;99.90
12948;DHT22;6539;49.476;8.484;2022-12-07T08:10:47;6.80;99.90
12948;DHT22;6539;49.476;8.484;2022-12-07T08:13:17;6.70;99.90
12948;DHT22;6539;49.476;8.484;2022-12-07T08:15:48;6.80;99.90
12948;DHT22;6539;49.476;8.484;2022-12-07T08:18:18;6.70;99.90
12948;DHT22;6539;49.476;8.484;2022-12-07T08:20:44;6.90;99.90
12948;DHT22;6539;49.476;8.484;2022-12-07T08:23:10;6.40;99.90
12948;DHT22;6539;49.476;8.484;2022-12-07T08:25:39;6.80;99.90
12948;DHT22;6539;49.476;8.484;2022-12-07T08:28:10;6.80;99.90
12948;DHT22;6539;49.476;8.484;2022-12-07T08:30:37;6.70;99.90
12948;DHT22;6539;49.476;8.484;2022-12-07T08:33:08;6.80;99.90
12948;DHT22;6539;49.476;8.484;2022-12-07T08:38:01;6.70;99.90
12948;DHT22;6539;49.476;8.484;2022-12-07T08:40:30;6.60;99.90
12948;DHT22;6539;49.476;8.484;2022-12-07T08:42:58;6.80;99.90
12948;DHT22;6539;49.476;8.484;2022-12-07T08:45:24;6.90;99.90
12948;DHT22;6539;49.476;8.484;2022-12-07T08:48:02;6.80;99.90
12948;DHT22;6539;49.476;8.484;2022-12-07T08:50:36;6.40;99.90
12948;DHT22;6539;49.476;8.484;2022-12-07T08:53:03;6.80;99.90
12948;DHT22;6539;49.476;8.484;2022-12-07T08:55:31;6.90;99.90
12948;DHT22;6539;49.476;8.484;2022-12-07T08:57:59;6.60;99.90
12948;DHT22;6539;49.476;8.484;2022-12-07T09:00:27;6.80;99.90
12948;DHT22;6539;49.476;8.484;2022-12-07T09:02:53;6.90;99.90
12948;DHT22;6539;49.476;8.484;2022-12-07T09:05:20;6.90;99.90
12948;DHT22;6539;49.476;8.484;2022-12-07T09:07:51;6.70;99.90
12948;DHT22;6539;49.476;8.484;2022-12-07T09:10:24;6.80;99.90
12948;DHT22;6539;49.476;8.484;2022-12-07T09:12:53;7.00;99.90
12948;DHT22;6539;49.476;8.484;2022-12-07T09:15:19;7.30;99.90
12948;DHT22;6539;49.476;8.484;2022-12-07T09:17:45;7.00;99.90
12948;DHT22;6539;49.476;8.484;2022-12-07T09:20:11;6.90;99.90
12948;DHT22;6539;49.476;8.484;2022-12-07T09:22:39;7.00;99.90
12948;DHT22;6539;49.476;8.484;2022-12-07T09:25:05;7.00;99.90
12948;DHT22;6539;49.476;8.484;2022-12-07T09:27:33;6.80;99.90
12948;DHT22;6539;49.476;8.484;2022-12-07T09:32:25;7.30;99.90
12948;DHT22;6539;49.476;8.484;2022-12-07T09:34:51;7.20;99.90
12948;DHT22;6539;49.476;8.484;2022-12-07T09:37:17;7.00;99.90
12948;DHT22;6539;49.476;8.484;2022-12-07T09:39:43;6.90;99.90
12948;DHT22;6539;49.476;8.484;2022-12-07T09:42:09;7.00;99.90
12948;DHT22;6539;49.476;8.484;2022-12-07T09:44:55;7.00;99.90
12948;DHT22;6539;49.476;8.484;2022-12-07T09:47:22;6.90;99.90
12948;DHT22;6539;49.476;8.484;2022-12-07T09:49:48;6.70;99.90
12948;DHT22;6539;49.476;8.484;2022-12-07T09:52:25;7.00;99.90
12948;DHT22;6539;49.476;8.484;2022-12-07T09:54:53;7.10;99.90
12948;DHT22;6539;49.476;8.484;2022-12-07T09:57:30;7.10;99.90
12948;DHT22;6539;49.476;8.484;2022-12-07T10:00:02;7.10;99.90
12948;DHT22;6539;49.476;8.484;2022-12-07T10:02:41;6.90;99.90
12948;DHT22;6539;49.476;8.484;2022-12-07T10:05:18;7.20;99.90
12948;DHT22;6539;49.476;8.484;2022-12-07T10:07:47;7.00;99.90
12948;DHT22;6539;49.476;8.484;2022-12-07T10:10:19;7.20;99.90
12948;DHT22;6539;49.476;8.484;2022-12-07T10:13:00;7.30;99.90
12948;DHT22;6539;49.476;8.484;2022-12-07T10:23:35;7.60;99.90
12948;DHT22;6539;49.476;8.484;2022-12-07T10:28:53;7.60;99.90
12948;DHT22;6539;49.476;8.484;2022-12-07T10:31:28;7.80;99.90
12948;DHT22;6539;49.476;8.484;2022-12-07T10:33:59;7.80;99.90
12948;DHT22;6539;49.476;8.484;2022-12-07T10:36:34;7.70;99.90
12948;DHT22;6539;49.476;8.484;2022-12-07T10:39:15;7.90;99.90
12948;DHT22;6539;49.476;8.484;2022-12-07T10:42:00;7.60;99.90
12948;DHT22;6539;49.476;8.484;2022-12-07T10:44:29;7.60;99.90
12948;DHT22;6539;49.476;8.484;2022-12-07T10:55:20;7.70;99.90
12948;DHT22;6539;49.476;8.484;2022-12-07T10:58:21;7.80;99.90
12948;DHT22;6539;49.476;8.484;2022-12-07T11:15:53;8.00;99.90
12948;DHT22;6539;49.476;8.484;2022-12-07T11:18:39;7.90;99.90
12948;DHT22;6539;49.476;8.484;2022-12-07T11:21:53;8.00;99.90
12948;DHT22;6539;49.476;8.484;2022-12-07T11:27:41;8.10;99.90
12948;DHT22;6539;49.476;8.484;2022-12-07T11:30:19;8.10;99.90
12948;DHT22;6539;49.476;8.484;2022-12-07T11:36:22;8.00;99.90
12948;DHT22;6539;49.476;8.484;2022-12-07T11:41:48;8.30;99.90
12948;DHT22;6539;49.476;8.484;2022-12-07T11:44:48;8.30;99.90
12948;DHT22;6539;49.476;8.484;2022-12-07T11:47:25;8.20;99.90
12948;DHT22;6539;49.476;8.484;2022-12-07T11:50:16;7.90;99.90
12948;DHT22;6539;49.476;8.484;2022-12-07T11:55:52;8.10;99.90
12948;DHT22;6539;49.476;8.484;2022-12-07T11:58:40;8.20;99.90
12948;DHT22;6539;49.476;8.484;2022-12-07T12:03:47;8.60;99.90
12948;DHT22;6539;49.476;8.484;2022-12-07T12:06:20;8.50;99.90
12948;DHT22;6539;49.476;8.484;2022-12-07T12:09:09;8.40;99.90
12948;DHT22;6539;49.476;8.484;2022-12-07T12:17:58;8.60;99.90
12948;DHT22;6539;49.476;8.484;2022-12-07T12:23:19;8.70;99.90
12948;DHT22;6539;49.476;8.484;2022-12-07T12:25:50;8.60;99.90
12948;DHT22;6539;49.476;8.484;2022-12-07T12:29:18;8.50;99.90
12948;DHT22;6539;49.476;8.484;2022-12-07T12:31:34;8.10;99.90
12948;DHT22;6539;49.476;8.484;2022-12-07T12:37:53;8.20;99.90
12948;DHT22;6539;49.476;8.484;2022-12-07T12:42:52;8.30;99.90
12948;DHT22;6539;49.476;8.484;2022-12-07T12:45:32;8.20;99.90
12948;DHT22;6539;49.476;8.484;2022-12-07T12:48:00;8.20;99.90
12948;DHT22;6539;49.476;8.484;2022-12-07T12:50:33;8.30;99.90
12948;DHT22;6539;49.476;8.484;2022-12-07T12:59:22;8.10;99.90
12948;DHT22;6539;49.476;8.484;2022-12-07T13:18:37;8.10;99.90
12948;DHT22;6539;49.476;8.484;2022-12-07T13:23:39;7.90;99.90
12948;DHT22;6539;49.476;8.484;2022-12-07T13:29:11;7.90;99.90
12948;DHT22;6539;49.476;8.484;2022-12-07T13:31:53;8.00;99.90
12948;DHT22;6539;49.476;8.484;2022-12-07T13:39:51;8.20;99.90
12948;DHT22;6539;49.476;8.484;2022-12-07T13:42:30;8.30;99.90
12948;DHT22;6539;49.476;8.484;2022-12-07T13:44:59;8.00;99.90
12948;DHT22;6539;49.476;8.484;2022-12-07T13:47:36;8.20;99.90
12948;DHT22;6539;49.476;8.484;2022-12-07T13:50:27;8.10;99.90
12948;DHT22;6539;49.476;8.484;2022-12-07T13:52:58;8.50;99.90
12948;DHT22;6539;49.476;8.484;2022-12-07T13:55:28;8.40;99.90
12948;DHT22;6539;49.476;8.484;2022-12-07T13:57:57;8.50;99.90
12948;DHT22;6539;49.476;8.484;2022-12-07T14:00:25;8.10;99.90
12948;DHT22;6539;49.476;8.484;2022-12-07T14:05:41;8.30;99.90
12948;DHT22;6539;49.476;8.484;2022-12-07T14:13:37;8.20;99.90
12948;DHT22;6539;49.476;8.484;2022-12-07T14:16:23;8.10;99.90
12948;DHT22;6539;49.476;8.484;2022-12-07T14:18:54;8.30;99.90
12948;DHT22;6539;49.476;8.484;2022-12-07T14:21:24;7.80;99.90
12948;DHT22;6539;49.476;8.484;2022-12-07T14:26:39;7.80;99.90
12948;DHT22;6539;49.476;8.484;2022-12-07T14:31:55;8.10;99.90
12948;DHT22;6539;49.476;8.484;2022-12-07T14:34:23;8.10;99.90
12948;DHT22;6539;49.476;8.484;2022-12-07T14:36:49;8.30;99.90
12948;DHT22;6539;49.476;8.484;2022-12-07T14:39:15;7.80;99.90
12948;DHT22;6539;49.476;8.484;2022-12-07T14:41:43;8.20;99.90
12948;DHT22;6539;49.476;8.484;2022-12-07T14:44:20;8.20;99.90
12948;DHT22;6539;49.476;8.484;2022-12-07T14:46:49;7.70;99.90
12948;DHT22;6539;49.476;8.484;2022-12-07T14:49:19;8.00;99.90
12948;DHT22;6539;49.476;8.484;2022-12-07T14:51:46;7.50;99.90
12948;DHT22;6539;49.476;8.484;2022-12-07T14:54:20;7.60;99.90
12948;DHT22;6539;49.476;8.484;2022-12-07T14:56:50;7.80;99.90
12948;DHT22;6539;49.476;8.484;2022-12-07T14:59:18;8.00;99.90
12948;DHT22;6539;49.476;8.484;2022-12-07T15:01:47;7.90;99.90
12948;DHT22;6539;49.476;8.484;2022-12-07T15:04:12;8.00;99.90
12948;DHT22;6539;49.476;8.484;2022-12-07T15:06:38;8.00;99.90
12948;DHT22;6539;49.476;8.484;2022-12-07T15:09:04;7.60;99.90
12948;DHT22;6539;49.476;8.484;2022-12-07T15:11:30;7.90;99.90
12948;DHT22;6539;49.476;8.484;2022-12-07T15:14:01;7.80;99.90
12948;DHT22;6539;49.476;8.484;2022-12-07T15:16:42;7.90;99.90
12948;DHT22;6539;49.476;8.484;2022-12-07T15:19:17;7.80;99.90
12948;DHT22;6539;49.476;8.484;2022-12-07T15:21:45;7.90;99.90
12948;DHT22;6539;49.476;8.484;2022-12-07T15:24:13;7.30;99.90
12948;DHT22;6539;49.476;8.484;2022-12-07T15:26:40;7.20;99.90
12948;DHT22;6539;49.476;8.484;2022-12-07T15:29:09;7.90;99.90
12948;DHT22;6539;49.476;8.484;2022-12-07T15:31:36;7.40;99.90
12948;DHT22;6539;49.476;8.484;2022-12-07T15:34:04;7.70;99.90
12948;DHT22;6539;49.476;8.484;2022-12-07T15:36:33;7.80;99.90
12948;DHT22;6539;49.476;8.484;2022-12-07T15:43:56;8.00;99.90
12948;DHT22;6539;49.476;8.484;2022-12-07T15:46:41;7.60;99.90
12948;DHT22;6539;49.476;8.484;2022-12-07T15:49:16;7.70;99.90
12948;DHT22;6539;49.476;8.484;2022-12-07T15:51:45;7.40;99.90
12948;DHT22;6539;49.476;8.484;2022-12-07T15:54:19;7.70;99.90
12948;DHT22;6539;49.476;8.484;2022-12-07T15:56:55;7.50;99.90
12948;DHT22;6539;49.476;8.484;2022-12-07T15:59:26;7.70;99.90
12948;DHT22;6539;49.476;8.484;2022-12-07T16:01:53;7.50;99.90
12948;DHT22;6539;49.476;8.484;2022-12-07T16:04:19;7.60;99.90
12948;DHT22;6539;49.476;8.484;2022-12-07T16:06:45;7.50;99.90
12948;DHT22;6539;49.476;8.484;2022-12-07T16:09:11;7.60;99.90
12948;DHT22;6539;49.476;8.484;2022-12-07T16:11:37;7.30;99.90
12948;DHT22;6539;49.476;8.484;2022-12-07T16:14:05;7.60;99.90
12948;DHT22;6539;49.476;8.484;2022-12-07T16:16:33;7.40;99.90
12948;DHT22;6539;49.476;8.484;2022-12-07T16:18:59;7.30;99.90
12948;DHT22;6539;49.476;8.484;2022-12-07T16:21:28;7.40;99.90
12948;DHT22;6539;49.476;8.484;2022-12-07T16:23:56;7.30;99.90
12948;DHT22;6539;49.476;8.484;2022-12-07T16:26:23;7.30;99.90
12948;DHT22;6539;49.476;8.484;2022-12-07T16:28:50;7.20;99.90
12948;DHT22;6539;49.476;8.484;2022-12-07T16:31:20;7.70;99.90
12948;DHT22;6539;49.476;8.484;2022-12-07T16:33:52;7.40;99.90
12948;DHT22;6539;49.476;8.484;2022-12-07T16:36:21;7.50;99.90
12948;DHT22;6539;49.476;8.484;2022-12-07T16:38:52;7.40;99.90
12948;DHT22;6539;49.476;8.484;2022-12-07T16:43:45;7.40;99.90
12948;DHT22;6539;49.476;8.484;2022-12-07T16:46:11;7.20;99.90
12948;DHT22;6539;49.476;8.484;2022-12-07T16:48:40;7.50;99.90
12948;DHT22;6539;49.476;8.484;2022-12-07T16:51:07;7.70;99.90
12948;DHT22;6539;49.476;8.484;2022-12-07T16:53:39;7.80;99.90
12948;DHT22;6539;49.476;8.484;2022-12-07T16:56:13;7.80;99.90
12948;DHT22;6539;49.476;8.484;2022-12-07T16:58:44;7.60;99.90
12948;DHT22;6539;49.476;8.484;2022-12-07T17:01:11;7.30;99.90
12948;DHT22;6539;49.476;8.484;2022-12-07T17:03:50;7.70;99.90
12948;DHT22;6539;49.476;8.484;2022-12-07T17:06:19;7.30;99.90
12948;DHT22;6539;49.476;8.484;2022-12-07T17:08:54;7.30;99.90
12948;DHT22;6539;49.476;8.484;2022-12-07T17:11:29;7.40;99.90
12948;DHT22;6539;49.476;8.484;2022-12-07T17:13:58;7.40;99.90
12948;DHT22;6539;49.476;8.484;2022-12-07T17:16:42;7.20;99.90
12948;DHT22;6539;49.476;8.484;2022-12-07T17:19:15;7.30;99.90
12948;DHT22;6539;49.476;8.484;2022-12-07T17:21:45;7.40;99.90
12948;DHT22;6539;49.476;8.484;2022-12-07T17:24:13;7.20;99.90
12948;DHT22;6539;49.476;8.484;2022-12-07T17:26:44;7.30;99.90
12948;DHT22;6539;49.476;8.484;2022-12-07T17:29:12;7.10;99.90
12948;DHT22;6539;49.476;8.484;2022-12-07T17:31:46;7.20;99.90
12948;DHT22;6539;49.476;8.484;2022-12-07T17:34:13;7.00;99.90
12948;DHT22;6539;49.476;8.484;2022-12-07T17:36:41;7.40;99.90
12948;DHT22;6539;49.476;8.484;2022-12-07T17:39:11;7.50;99.90
12948;DHT22;6539;49.476;8.484;2022-12-07T17:41:41;7.60;99.90
12948;DHT22;6539;49.476;8.484;2022-12-07T17:44:29;7.10;99.90
12948;DHT22;6539;49.476;8.484;2022-12-07T17:46:55;7.20;99.90
12948;DHT22;6539;49.476;8.484;2022-12-07T17:49:29;7.40;99.90
12948;DHT22;6539;49.476;8.484;2022-12-07T17:51:57;7.20;99.90
12948;DHT22;6539;49.476;8.484;2022-12-07T17:54:42;7.40;99.90
12948;DHT22;6539;49.476;8.484;2022-12-07T17:57:08;7.50;99.90
12948;DHT22;6539;49.476;8.484;2022-12-07T17:59:34;7.30;99.90
12948;DHT22;6539;49.476;8.484;2022-12-07T18:02:02;7.40;99.90
12948;DHT22;6539;49.476;8.484;2022-12-07T18:04:28;7.10;99.90
12948;DHT22;6539;49.476;8.484;2022-12-07T18:06:59;7.10;99.90
12948;DHT22;6539;49.476;8.484;2022-12-07T18:09:27;7.10;99.90
12948;DHT22;6539;49.476;8.484;2022-12-07T18:11:53;6.80;99.90
12948;DHT22;6539;49.476;8.484;2022-12-07T18:14:21;6.80;99.90
12948;DHT22;6539;49.476;8.484;2022-12-07T18:16:49;7.00;99.90
12948;DHT22;6539;49.476;8.484;2022-12-07T18:19:15;6.90;99.90
12948;DHT22;6539;49.476;8.484;2022-12-07T18:24:12;6.90;99.90
12948;DHT22;6539;49.476;8.484;2022-12-07T18:26:40;7.20;99.90
12948;DHT22;6539;49.476;8.484;2022-12-07T18:29:07;7.00;99.90
12948;DHT22;6539;49.476;8.484;2022-12-07T18:31:37;7.30;99.90
12948;DHT22;6539;49.476;8.484;2022-12-07T18:34:06;7.30;99.90
12948;DHT22;6539;49.476;8.484;2022-12-07T18:36:39;7.20;99.90
12948;DHT22;6539;49.476;8.484;2022-12-07T18:39:07;7.10;99.90
12948;DHT22;6539;49.476;8.484;2022-12-07T18:44:02;7.00;99.90
12948;DHT22;6539;49.476;8.484;2022-12-07T18:46:29;6.90;99.90
12948;DHT22;6539;49.476;8.484;2022-12-07T18:51:22;7.00;99.90
12948;DHT22;6539;49.476;8.484;2022-12-07T18:53:48;6.90;99.90
12948;DHT22;6539;49.476;8.484;2022-12-07T18:56:18;7.10;99.90
12948;DHT22;6539;49.476;8.484;2022-12-07T18:58:55;7.90;99.90
12948;DHT22;6539;49.476;8.484;2022-12-07T19:01:43;7.00;99.90
12948;DHT22;6539;49.476;8.484;2022-12-07T19:04:12;7.00;99.90
12948;DHT22;6539;49.476;8.484;2022-12-07T19:06:41;7.10;99.90
12948;DHT22;6539;49.476;8.484;2022-12-07T19:11:36;6.90;99.90
12948;DHT22;6539;49.476;8.484;2022-12-07T19:14:30;6.50;99.90
12948;DHT22;6539;49.476;8.484;2022-12-07T19:17:05;7.00;99.90
12948;DHT22;6539;49.476;8.484;2022-12-07T19:19:44;6.80;99.90
12948;DHT22;6539;49.476;8.484;2022-12-07T19:22:14;6.60;99.90
12948;DHT22;6539;49.476;8.484;2022-12-07T19:24:42;7.20;99.90
12948;DHT22;6539;49.476;8.484;2022-12-07T19:27:13;6.60;99.90
12948;DHT22;6539;49.476;8.484;2022-12-07T19:29:40;7.10;99.90
12948;DHT22;6539;49.476;8.484;2022-12-07T19:32:14;6.60;99.90
12948;DHT22;6539;49.476;8.484;2022-12-07T19:34:44;6.90;99.90
12948;DHT22;6539;49.476;8.484;2022-12-07T19:37:15;6.80;99.90
12948;DHT22;6539;49.476;8.484;2022-12-07T19:42:12;6.70;99.90
12948;DHT22;6539;49.476;8.484;2022-12-07T19:47:04;6.80;99.90